Time;durP1;ratioP1;P1;durP2;ratioP2;P2;SDS_P1;SDS_P2;PMS_P1;PMS_P2;Temp;Humidity;BMP_temperature;BMP_pressure;BME280_temperature;BME280_humidity;BME280_pressure;Samples;Min_cycle;Max_cycle;Signal;HPM_P1;HPM_P2
2022/12/08 00:00:43;;;;;;;25.70;14.00;;;;;;;;;;5006366;28;20058;-76
2022/12/08 00:03:09;;;;;;;38.78;24.08;;;;;;;;;;4997951;28;20058;-77
2022/12/08 00:11:04;;;;;;;29.30;19.80;;;;;;;;;;5022028;28;20631;-77
2022/12/08 00:13:30;;;;;;;26.48;17.88;;;;;;;;;;5001801;28;20025;-77
2022/12/08 00:16:00;;;;;;;25.42;18.15;;;;;;;;;;5006733;28;20025;-77
2022/12/08 00:18:26;;;;;;;24.90;17.65;;;;;;;;;;5027366;28;20068;-78
2022/12/08 00:20:56;;;;;;;22.85;15.55;;;;;;;;;;5021568;28;21034;-76
2022/12/08 00:23:22;;;;;;;32.38;18.15;;;;;;;;;;5019739;28;20032;-76
2022/12/08 00:25:48;;;;;;;33.30;18.70;;;;;;;;;;5014528;28;20543;-78
2022/12/08 00:28:15;;;;;;;27.02;16.77;;;;;;;;;;5012049;28;20913;-76
2022/12/08 00:30:42;;;;;;;24.33;14.90;;;;;;;;;;5028667;28;20390;-77
2022/12/08 00:33:08;;;;;;;30.15;16.55;;;;;;;;;;5010474;28;20421;-77
2022/12/08 00:35:34;;;;;;;26.75;15.82;;;;;;;;;;5007775;28;20022;-76
2022/12/08 00:38:00;;;;;;;30.95;15.60;;;;;;;;;;5006894;28;20040;-77
2022/12/08 00:40:26;;;;;;;29.83;16.23;;;;;;;;;;5028446;28;20026;-77
2022/12/08 00:42:52;;;;;;;25.02;15.00;;;;;;;;;;5023806;28;20105;-77
2022/12/08 00:45:19;;;;;;;26.52;15.50;;;;;;;;;;4997959;28;20018;-77
2022/12/08 00:47:45;;;;;;;24.13;14.85;;;;;;;;;;5012652;28;20101;-77
2022/12/08 00:50:11;;;;;;;24.48;14.20;;;;;;;;;;5027588;28;20037;-77
2022/12/08 00:52:37;;;;;;;20.58;13.68;;;;;;;;;;4999627;28;20037;-76
2022/12/08 00:55:04;;;;;;;20.83;14.45;;;;;;;;;;5018946;28;20120;-76
2022/12/08 00:57:30;;;;;;;20.38;13.73;;;;;;;;;;5029652;28;20401;-77
2022/12/08 00:59:56;;;;;;;18.77;13.07;;;;;;;;;;5018782;28;20083;-76
2022/12/08 01:02:23;;;;;;;18.40;12.80;;;;;;;;;;5015578;28;20363;-77
2022/12/08 01:04:49;;;;;;;19.02;11.93;;;;;;;;;;5015701;28;20034;-77
2022/12/08 01:07:15;;;;;;;20.33;12.45;;;;;;;;;;5016938;28;20021;-77
2022/12/08 01:09:41;;;;;;;18.60;12.07;;;;;;;;;;5021241;28;20033;-77
2022/12/08 01:12:08;;;;;;;20.95;13.15;;;;;;;;;;5015969;28;20022;-77
2022/12/08 01:14:34;;;;;;;24.00;12.65;;;;;;;;;;5035296;28;20021;-76
2022/12/08 01:17:00;;;;;;;17.30;10.75;;;;;;;;;;5027769;28;20551;-77
2022/12/08 01:19:26;;;;;;;19.85;11.32;;;;;;;;;;4997663;28;20041;-77
2022/12/08 01:21:52;;;;;;;15.07;9.40;;;;;;;;;;5008783;28;20160;-77
2022/12/08 01:24:20;;;;;;;14.77;9.70;;;;;;;;;;5010412;28;20040;-76
2022/12/08 01:26:46;;;;;;;11.27;8.95;;;;;;;;;;5026048;28;20030;-77
2022/12/08 01:29:12;;;;;;;15.23;9.32;;;;;;;;;;5010834;28;20537;-77
2022/12/08 01:31:39;;;;;;;11.70;8.38;;;;;;;;;;5034328;28;20068;-77
2022/12/08 01:34:05;;;;;;;11.55;8.73;;;;;;;;;;5025199;28;20126;-76
2022/12/08 01:36:32;;;;;;;12.38;8.38;;;;;;;;;;4999552;28;20124;-77
2022/12/08 01:39:01;;;;;;;11.50;7.63;;;;;;;;;;5023416;28;20055;-76
2022/12/08 01:41:29;;;;;;;10.55;7.22;;;;;;;;;;5030506;28;20037;-77
2022/12/08 01:44:01;;;;;;;12.15;7.65;;;;;;;;;;5014680;28;20483;-76
2022/12/08 01:46:28;;;;;;;11.70;7.05;;;;;;;;;;5024897;28;20620;-76
2022/12/08 01:48:59;;;;;;;11.98;6.90;;;;;;;;;;5024674;28;20013;-77
2022/12/08 01:51:25;;;;;;;10.43;6.93;;;;;;;;;;5022075;28;20038;-77
2022/12/08 01:53:52;;;;;;;10.52;7.30;;;;;;;;;;5024590;28;20029;-76
2022/12/08 01:56:26;;;;;;;21.30;11.55;;;;;;;;;;5032819;28;20029;-77
2022/12/08 01:58:53;;;;;;;12.57;9.73;;;;;;;;;;5030431;28;20045;-77
2022/12/08 02:01:19;;;;;;;19.40;12.02;;;;;;;;;;5012032;28;20025;-77
2022/12/08 02:03:48;;;;;;;18.45;10.35;;;;;;;;;;5029285;28;20398;-77
2022/12/08 02:06:15;;;;;;;15.55;10.20;;;;;;;;;;5022435;28;20036;-76
2022/12/08 02:08:42;;;;;;;17.40;10.07;;;;;;;;;;5024795;28;20029;-77
2022/12/08 02:11:10;;;;;;;19.63;9.95;;;;;;;;;;5026286;28;20095;-77
2022/12/08 02:13:36;;;;;;;16.00;11.07;;;;;;;;;;5028117;28;20114;-76
2022/12/08 02:16:05;;;;;;;19.58;11.00;;;;;;;;;;5028025;28;20343;-76
2022/12/08 02:18:49;;;;;;;19.13;12.27;;;;;;;;;;5029109;28;20049;-77
2022/12/08 02:21:28;;;;;;;15.93;10.18;;;;;;;;;;5031932;28;20107;-77
2022/12/08 02:24:09;;;;;;;16.25;10.80;;;;;;;;;;5009316;28;20030;-76
2022/12/08 02:26:59;;;;;;;14.48;9.82;;;;;;;;;;5020132;28;20052;-76
2022/12/08 02:29:25;;;;;;;13.80;8.90;;;;;;;;;;5027714;28;20033;-76
2022/12/08 02:31:54;;;;;;;13.27;9.90;;;;;;;;;;5036035;28;20088;-77
2022/12/08 02:34:30;;;;;;;13.63;10.13;;;;;;;;;;5016993;28;20386;-77
2022/12/08 02:37:17;;;;;;;13.48;10.35;;;;;;;;;;5019306;28;20063;-76
2022/12/08 02:39:46;;;;;;;16.45;10.52;;;;;;;;;;4998417;28;20087;-78
2022/12/08 02:42:28;;;;;;;15.30;9.48;;;;;;;;;;5029226;28;20037;-77
2022/12/08 02:45:00;;;;;;;17.08;9.88;;;;;;;;;;5026921;28;20108;-76
2022/12/08 02:47:27;;;;;;;17.80;9.70;;;;;;;;;;5028678;28;20116;-77
2022/12/08 02:49:54;;;;;;;17.05;11.52;;;;;;;;;;5027784;28;20171;-77
2022/12/08 02:52:20;;;;;;;16.05;11.55;;;;;;;;;;5006740;28;20040;-76
2022/12/08 02:54:51;;;;;;;14.05;9.98;;;;;;;;;;5033459;28;20026;-76
2022/12/08 02:57:17;;;;;;;16.17;10.00;;;;;;;;;;5037474;28;20091;-77
2022/12/08 02:59:49;;;;;;;15.40;10.13;;;;;;;;;;5034922;28;20028;-75
2022/12/08 03:02:21;;;;;;;16.45;10.23;;;;;;;;;;5035397;28;20025;-77
2022/12/08 03:04:53;;;;;;;16.52;10.23;;;;;;;;;;5031772;28;20087;-77
2022/12/08 03:07:25;;;;;;;12.02;9.18;;;;;;;;;;5006388;28;20681;-76
2022/12/08 03:09:56;;;;;;;15.70;10.02;;;;;;;;;;5014640;28;20116;-77
2022/12/08 03:12:28;;;;;;;16.65;10.50;;;;;;;;;;5012154;28;20366;-77
2022/12/08 03:14:56;;;;;;;12.82;9.05;;;;;;;;;;5029593;28;20529;-76
2022/12/08 03:17:24;;;;;;;15.77;8.93;;;;;;;;;;5039420;28;20025;-76
2022/12/08 03:19:52;;;;;;;12.45;8.80;;;;;;;;;;5032877;28;20174;-76
2022/12/08 03:22:21;;;;;;;13.18;8.70;;;;;;;;;;5029439;28;20928;-77
2022/12/08 03:24:47;;;;;;;11.10;7.80;;;;;;;;;;5031126;28;20033;-76
2022/12/08 03:27:18;;;;;;;14.13;7.95;;;;;;;;;;5024077;28;20033;-76
2022/12/08 03:29:45;;;;;;;11.30;7.68;;;;;;;;;;5024916;28;20021;-77
2022/12/08 03:32:34;;;;;;;14.70;8.57;;;;;;;;;;5006162;28;20030;-77
2022/12/08 03:35:02;;;;;;;13.25;8.70;;;;;;;;;;5015050;28;20036;-77
2022/12/08 03:37:29;;;;;;;19.63;11.18;;;;;;;;;;5028717;28;20030;-76
2022/12/08 03:39:55;;;;;;;14.77;9.35;;;;;;;;;;5015488;28;20034;-77
2022/12/08 03:42:21;;;;;;;17.30;10.30;;;;;;;;;;5027803;28;20112;-77
2022/12/08 03:44:48;;;;;;;12.38;9.23;;;;;;;;;;5030477;28;20584;-77
2022/12/08 03:47:14;;;;;;;18.85;9.80;;;;;;;;;;5005912;28;20025;-77
2022/12/08 03:49:40;;;;;;;12.85;9.25;;;;;;;;;;5010174;28;20021;-77
2022/12/08 03:52:06;;;;;;;14.52;10.00;;;;;;;;;;5029099;28;20026;-76
2022/12/08 03:54:32;;;;;;;11.13;8.60;;;;;;;;;;5022376;28;20040;-76
2022/12/08 03:56:58;;;;;;;12.85;7.95;;;;;;;;;;5008291;28;20509;-76
2022/12/08 03:59:24;;;;;;;13.07;8.52;;;;;;;;;;5005919;28;20522;-76
2022/12/08 04:01:50;;;;;;;14.73;8.98;;;;;;;;;;5002317;28;20414;-76
2022/12/08 04:04:17;;;;;;;16.50;8.85;;;;;;;;;;5018809;28;20483;-77
2022/12/08 04:06:43;;;;;;;19.90;9.65;;;;;;;;;;5019169;28;20113;-77
2022/12/08 04:09:09;;;;;;;25.45;12.85;;;;;;;;;;5019051;28;20033;-76
2022/12/08 04:11:36;;;;;;;37.30;15.75;;;;;;;;;;5007532;28;20024;-76
2022/12/08 04:14:02;;;;;;;24.40;11.60;;;;;;;;;;5016721;28;20112;-77
2022/12/08 04:16:28;;;;;;;17.80;9.25;;;;;;;;;;5011014;28;20034;-76
2022/12/08 04:18:54;;;;;;;17.38;9.38;;;;;;;;;;5013876;28;20022;-77
2022/12/08 04:21:20;;;;;;;33.70;14.68;;;;;;;;;;5018009;28;20142;-77
2022/12/08 04:23:46;;;;;;;24.60;12.20;;;;;;;;;;5007017;28;20480;-76
2022/12/08 04:26:13;;;;;;;23.17;13.55;;;;;;;;;;5008753;28;20120;-76
2022/12/08 04:28:39;;;;;;;16.83;10.55;;;;;;;;;;5006248;28;20038;-76
2022/12/08 04:31:05;;;;;;;16.27;9.82;;;;;;;;;;5018187;28;20477;-76
2022/12/08 04:33:31;;;;;;;16.08;10.75;;;;;;;;;;5019607;28;20145;-77
2022/12/08 04:35:58;;;;;;;13.65;9.82;;;;;;;;;;5015111;28;20027;-76
2022/12/08 04:38:24;;;;;;;18.95;9.93;;;;;;;;;;5012494;28;20083;-77
2022/12/08 04:40:50;;;;;;;22.50;12.15;;;;;;;;;;4998497;28;20403;-76
2022/12/08 04:43:16;;;;;;;21.48;13.70;;;;;;;;;;5012186;28;20030;-77
2022/12/08 04:45:42;;;;;;;20.98;11.20;;;;;;;;;;5025252;28;20084;-77
2022/12/08 04:48:09;;;;;;;17.40;10.60;;;;;;;;;;5025314;28;20698;-77
2022/12/08 04:50:35;;;;;;;17.30;11.75;;;;;;;;;;4995093;28;20030;-77
2022/12/08 04:53:01;;;;;;;13.82;9.10;;;;;;;;;;5015763;28;20054;-77
2022/12/08 04:55:27;;;;;;;20.10;9.50;;;;;;;;;;4998895;28;20022;-76
2022/12/08 04:57:53;;;;;;;14.68;9.75;;;;;;;;;;5020814;28;20045;-76
2022/12/08 05:00:19;;;;;;;16.95;10.27;;;;;;;;;;5023104;28;20032;-76
2022/12/08 05:02:45;;;;;;;14.80;9.60;;;;;;;;;;5023232;28;20031;-77
2022/12/08 05:05:11;;;;;;;15.68;9.45;;;;;;;;;;5007271;28;20538;-78
2022/12/08 05:07:37;;;;;;;16.25;9.15;;;;;;;;;;5010513;28;20034;-77
2022/12/08 05:10:04;;;;;;;17.02;9.50;;;;;;;;;;5025842;28;20105;-77
2022/12/08 05:12:30;;;;;;;13.38;8.88;;;;;;;;;;5028489;28;20030;-77
2022/12/08 05:14:56;;;;;;;14.38;9.27;;;;;;;;;;5027112;28;20409;-77
2022/12/08 05:17:22;;;;;;;12.73;8.52;;;;;;;;;;5029426;28;20080;-77
2022/12/08 05:19:48;;;;;;;15.23;8.23;;;;;;;;;;5010438;28;20116;-78
2022/12/08 05:22:14;;;;;;;11.55;8.63;;;;;;;;;;5025020;28;20039;-76
2022/12/08 05:24:40;;;;;;;14.90;8.93;;;;;;;;;;5040288;28;20033;-77
2022/12/08 05:27:06;;;;;;;13.43;7.70;;;;;;;;;;5024892;28;20056;-77
2022/12/08 05:29:33;;;;;;;15.60;8.63;;;;;;;;;;5030712;28;20116;-77
2022/12/08 05:31:59;;;;;;;12.98;7.53;;;;;;;;;;5011230;28;20036;-77
2022/12/08 05:34:25;;;;;;;11.82;7.85;;;;;;;;;;5022469;28;20032;-76
2022/12/08 05:36:51;;;;;;;12.13;9.65;;;;;;;;;;5019788;28;20021;-77
2022/12/08 05:39:17;;;;;;;13.80;8.10;;;;;;;;;;5009275;28;20084;-77
2022/12/08 05:41:43;;;;;;;10.82;7.40;;;;;;;;;;5013350;28;20079;-77
2022/12/08 05:44:09;;;;;;;12.25;7.88;;;;;;;;;;5012338;28;20045;-77
2022/12/08 05:46:35;;;;;;;15.05;8.52;;;;;;;;;;4999124;28;20037;-77
2022/12/08 05:49:02;;;;;;;11.73;6.93;;;;;;;;;;5027099;28;20032;-76
2022/12/08 05:51:28;;;;;;;11.68;7.20;;;;;;;;;;5027530;28;20034;-77
2022/12/08 05:53:54;;;;;;;12.20;7.65;;;;;;;;;;5031669;28;20040;-77
2022/12/08 05:56:21;;;;;;;17.42;7.82;;;;;;;;;;5010872;28;20188;-77
2022/12/08 05:58:47;;;;;;;11.88;7.60;;;;;;;;;;5028529;28;20542;-77
2022/12/08 06:01:23;;;;;;;14.85;7.40;;;;;;;;;;5020591;28;20039;-77
2022/12/08 06:03:50;;;;;;;12.18;7.82;;;;;;;;;;5023699;28;20571;-77
2022/12/08 06:06:16;;;;;;;13.32;7.53;;;;;;;;;;5006714;28;20390;-77
2022/12/08 06:08:42;;;;;;;11.48;6.50;;;;;;;;;;5014992;28;20400;-77
2022/12/08 06:11:08;;;;;;;11.55;7.90;;;;;;;;;;5025910;28;20033;-76
2022/12/08 06:13:34;;;;;;;9.60;6.93;;;;;;;;;;5028052;28;20025;-78
2022/12/08 06:16:05;;;;;;;12.48;7.95;;;;;;;;;;5020799;28;20036;-76
2022/12/08 06:18:31;;;;;;;11.27;6.70;;;;;;;;;;5020743;28;20034;-77
2022/12/08 06:21:07;;;;;;;13.60;7.65;;;;;;;;;;5003261;28;20486;-77
2022/12/08 06:23:34;;;;;;;12.43;7.25;;;;;;;;;;5026417;28;20039;-78
2022/12/08 06:26:01;;;;;;;10.07;7.00;;;;;;;;;;5011233;28;20033;-77
2022/12/08 06:28:27;;;;;;;13.73;7.95;;;;;;;;;;5023638;28;20084;-77
2022/12/08 06:30:53;;;;;;;11.20;7.32;;;;;;;;;;5009710;28;20053;-76
2022/12/08 06:33:19;;;;;;;9.18;6.95;;;;;;;;;;5026759;28;20498;-77
2022/12/08 06:35:45;;;;;;;12.55;7.55;;;;;;;;;;5024631;28;20481;-77
2022/12/08 06:38:11;;;;;;;11.77;7.25;;;;;;;;;;5028013;28;20017;-77
2022/12/08 06:40:37;;;;;;;10.60;6.53;;;;;;;;;;5025247;28;20029;-77
2022/12/08 06:43:03;;;;;;;10.20;6.15;;;;;;;;;;5028207;28;20025;-76
2022/12/08 06:45:29;;;;;;;14.73;6.85;;;;;;;;;;5034910;28;20109;-76
2022/12/08 06:47:55;;;;;;;9.82;7.18;;;;;;;;;;5027043;28;20033;-76
2022/12/08 06:50:22;;;;;;;10.60;7.60;;;;;;;;;;5005724;28;20029;-77
2022/12/08 06:52:48;;;;;;;12.68;7.55;;;;;;;;;;5026414;28;20068;-76
2022/12/08 06:55:14;;;;;;;13.50;7.55;;;;;;;;;;5019674;28;20026;-76
2022/12/08 06:57:40;;;;;;;9.48;6.80;;;;;;;;;;5006646;28;20095;-77
2022/12/08 07:00:06;;;;;;;13.80;7.25;;;;;;;;;;5004200;28;20030;-75
2022/12/08 07:02:32;;;;;;;11.80;7.40;;;;;;;;;;5019919;28;20033;-76
2022/12/08 07:04:58;;;;;;;12.52;7.18;;;;;;;;;;4992089;28;20033;-76
2022/12/08 07:07:24;;;;;;;11.77;7.15;;;;;;;;;;5023488;28;20041;-76
2022/12/08 07:09:50;;;;;;;13.70;7.20;;;;;;;;;;5018949;28;20104;-77
2022/12/08 07:12:17;;;;;;;13.85;6.72;;;;;;;;;;5007830;28;20071;-77
2022/12/08 07:14:43;;;;;;;11.80;7.72;;;;;;;;;;5023788;28;20636;-76
2022/12/08 07:17:09;;;;;;;13.43;7.38;;;;;;;;;;5004103;28;20025;-77
2022/12/08 07:19:35;;;;;;;13.32;7.15;;;;;;;;;;5022003;28;20034;-76
2022/12/08 07:22:01;;;;;;;14.13;7.63;;;;;;;;;;5023810;28;20079;-78
2022/12/08 07:24:27;;;;;;;11.50;6.88;;;;;;;;;;5006645;28;20152;-77
2022/12/08 07:26:53;;;;;;;12.32;8.27;;;;;;;;;;5022297;28;20034;-76
2022/12/08 07:29:19;;;;;;;12.65;7.32;;;;;;;;;;5005636;28;20096;-77
2022/12/08 07:31:45;;;;;;;12.88;7.28;;;;;;;;;;5024418;28;20030;-77
2022/12/08 07:34:12;;;;;;;13.43;8.48;;;;;;;;;;5019875;28;20403;-77
2022/12/08 07:36:38;;;;;;;12.07;7.40;;;;;;;;;;5007091;28;20091;-77
2022/12/08 07:39:04;;;;;;;10.32;7.22;;;;;;;;;;5006516;28;20501;-77
2022/12/08 07:41:30;;;;;;;11.35;7.22;;;;;;;;;;5024839;28;20091;-77
2022/12/08 07:43:56;;;;;;;13.82;7.60;;;;;;;;;;5004874;28;20029;-77
2022/12/08 07:46:23;;;;;;;11.80;8.07;;;;;;;;;;5022046;28;20573;-78
2022/12/08 07:48:51;;;;;;;15.77;8.50;;;;;;;;;;5023681;28;20422;-76
2022/12/08 07:51:17;;;;;;;15.40;8.38;;;;;;;;;;5024333;28;20048;-77
2022/12/08 07:53:44;;;;;;;13.15;8.10;;;;;;;;;;5024183;28;20018;-78
2022/12/08 07:56:11;;;;;;;13.40;7.80;;;;;;;;;;5027119;28;20063;-78
2022/12/08 07:58:38;;;;;;;12.68;8.10;;;;;;;;;;5004281;28;20057;-78
2022/12/08 08:01:04;;;;;;;16.98;8.68;;;;;;;;;;5030405;28;20091;-78
2022/12/08 08:03:30;;;;;;;11.60;8.73;;;;;;;;;;5015054;28;20025;-78
2022/12/08 08:06:02;;;;;;;15.32;8.90;;;;;;;;;;5008940;28;20446;-77
2022/12/08 08:08:28;;;;;;;13.35;8.45;;;;;;;;;;5025885;28;20025;-77
2022/12/08 08:10:54;;;;;;;11.35;8.02;;;;;;;;;;5032576;28;20659;-77
2022/12/08 08:13:20;;;;;;;16.80;8.05;;;;;;;;;;5008726;28;20028;-77
2022/12/08 08:15:46;;;;;;;11.32;6.95;;;;;;;;;;5028232;28;20033;-77
2022/12/08 08:18:12;;;;;;;14.20;8.77;;;;;;;;;;5019767;28;21474;-78
2022/12/08 08:20:38;;;;;;;10.90;8.18;;;;;;;;;;5011579;28;20033;-78
2022/12/08 08:23:04;;;;;;;13.95;9.45;;;;;;;;;;5010849;28;20036;-78
2022/12/08 08:25:30;;;;;;;14.00;7.88;;;;;;;;;;5031138;28;20026;-78
2022/12/08 08:27:56;;;;;;;12.90;8.38;;;;;;;;;;5030183;28;20080;-77
2022/12/08 08:30:23;;;;;;;13.27;8.02;;;;;;;;;;5028973;28;20098;-77
2022/12/08 08:32:51;;;;;;;15.27;9.50;;;;;;;;;;5026466;28;20044;-77
2022/12/08 08:35:17;;;;;;;17.38;10.38;;;;;;;;;;5031000;28;20033;-77
2022/12/08 08:37:43;;;;;;;23.10;12.10;;;;;;;;;;5029961;28;20053;-77
2022/12/08 08:40:10;;;;;;;17.85;9.13;;;;;;;;;;5012675;28;20021;-78
2022/12/08 08:42:36;;;;;;;14.05;8.48;;;;;;;;;;5009814;28;20080;-77
2022/12/08 08:45:02;;;;;;;22.33;12.43;;;;;;;;;;5026043;28;20038;-77
2022/12/08 08:47:28;;;;;;;29.40;13.48;;;;;;;;;;5031290;28;20033;-77
2022/12/08 08:49:54;;;;;;;23.63;11.88;;;;;;;;;;5025389;28;20025;-78
2022/12/08 08:52:20;;;;;;;16.90;9.18;;;;;;;;;;5032779;28;20083;-78
2022/12/08 08:54:46;;;;;;;16.67;10.85;;;;;;;;;;5034137;28;20048;-78
2022/12/08 08:57:12;;;;;;;15.70;10.85;;;;;;;;;;5032606;28;20053;-78
2022/12/08 08:59:38;;;;;;;11.52;7.57;;;;;;;;;;5034461;28;20105;-78
2022/12/08 09:02:05;;;;;;;17.27;11.93;;;;;;;;;;5010112;28;20033;-78
2022/12/08 09:04:31;;;;;;;20.63;10.63;;;;;;;;;;5010021;28;20493;-77
2022/12/08 09:06:58;;;;;;;12.27;7.80;;;;;;;;;;5024487;28;20029;-77
2022/12/08 09:09:24;;;;;;;12.80;7.53;;;;;;;;;;5026937;28;20025;-77
2022/12/08 09:11:50;;;;;;;11.95;6.63;;;;;;;;;;5007831;28;20056;-76
2022/12/08 09:14:16;;;;;;;11.73;6.90;;;;;;;;;;5025335;28;20032;-77
2022/12/08 09:16:42;;;;;;;10.95;7.13;;;;;;;;;;5022872;28;20501;-79
2022/12/08 09:19:09;;;;;;;18.10;10.27;;;;;;;;;;5009589;28;20072;-77
2022/12/08 09:21:35;;;;;;;19.05;11.10;;;;;;;;;;5022611;28;20032;-77
2022/12/08 09:24:01;;;;;;;22.80;12.25;;;;;;;;;;5025979;28;20033;-76
2022/12/08 09:26:28;;;;;;;15.93;11.23;;;;;;;;;;5026718;28;20041;-78
2022/12/08 09:28:55;;;;;;;14.38;10.45;;;;;;;;;;5028335;28;20091;-78
2022/12/08 09:31:21;;;;;;;16.45;8.95;;;;;;;;;;5011612;28;20014;-78
2022/12/08 09:33:50;;;;;;;13.68;9.45;;;;;;;;;;5026751;28;20493;-76
2022/12/08 09:36:16;;;;;;;23.63;11.85;;;;;;;;;;5008141;28;20017;-76
2022/12/08 09:38:43;;;;;;;14.90;9.40;;;;;;;;;;5006503;28;20032;-77
2022/12/08 09:41:17;;;;;;;13.60;8.15;;;;;;;;;;5009123;28;20033;-76
2022/12/08 09:44:02;;;;;;;13.95;8.93;;;;;;;;;;5022608;28;20040;-77
2022/12/08 09:46:29;;;;;;;17.00;7.95;;;;;;;;;;5007147;28;20034;-76
2022/12/08 09:48:57;;;;;;;11.35;7.35;;;;;;;;;;5011249;28;20128;-76
2022/12/08 09:51:24;;;;;;;26.88;10.00;;;;;;;;;;5004736;28;20437;-76
2022/12/08 09:53:54;;;;;;;11.77;8.32;;;;;;;;;;5007088;28;20075;-76
2022/12/08 09:56:29;;;;;;;13.30;8.57;;;;;;;;;;5026062;28;20545;-76
2022/12/08 09:58:58;;;;;;;11.15;7.45;;;;;;;;;;5020990;28;20048;-75
2022/12/08 10:01:32;;;;;;;15.95;8.00;;;;;;;;;;5004913;28;20022;-77
2022/12/08 10:03:58;;;;;;;9.00;6.78;;;;;;;;;;5025950;28;20068;-77
2022/12/08 10:06:29;;;;;;;12.88;7.15;;;;;;;;;;5008241;28;20033;-77
2022/12/08 10:09:02;;;;;;;19.65;12.57;;;;;;;;;;5024738;28;20041;-76
2022/12/08 10:11:51;;;;;;;27.25;18.05;;;;;;;;;;5024936;28;20041;-77
2022/12/08 10:14:37;;;;;;;18.00;11.00;;;;;;;;;;5010983;28;20029;-76
2022/12/08 10:17:05;;;;;;;14.23;9.27;;;;;;;;;;4989328;28;20037;-76
2022/12/08 10:19:33;;;;;;;15.23;8.77;;;;;;;;;;5020931;28;20030;-76
2022/12/08 10:22:00;;;;;;;17.85;10.45;;;;;;;;;;5005175;28;20053;-77
2022/12/08 10:24:33;;;;;;;15.35;10.32;;;;;;;;;;5008062;28;20034;-76
2022/12/08 10:27:00;;;;;;;14.80;8.85;;;;;;;;;;5009455;28;20034;-77
2022/12/08 10:29:27;;;;;;;15.15;8.93;;;;;;;;;;5006856;28;20133;-76
2022/12/08 10:31:55;;;;;;;16.27;9.05;;;;;;;;;;5006027;28;20137;-76
2022/12/08 10:34:23;;;;;;;15.55;9.27;;;;;;;;;;5006284;28;20022;-76
2022/12/08 10:36:54;;;;;;;13.38;9.00;;;;;;;;;;5025198;28;20112;-77
2022/12/08 10:39:31;;;;;;;17.92;11.48;;;;;;;;;;5008508;28;20018;-77
2022/12/08 10:42:16;;;;;;;15.00;10.70;;;;;;;;;;5021905;28;20037;-77
2022/12/08 10:44:53;;;;;;;13.13;9.30;;;;;;;;;;5008967;28;20430;-77
2022/12/08 10:47:23;;;;;;;13.00;9.27;;;;;;;;;;5006276;28;21301;-76
2022/12/08 10:50:05;;;;;;;11.50;8.48;;;;;;;;;;5005789;28;20030;-75
2022/12/08 10:52:32;;;;;;;17.88;10.88;;;;;;;;;;5021229;28;20033;-77
2022/12/08 10:55:00;;;;;;;18.75;11.20;;;;;;;;;;5018137;28;20033;-76
2022/12/08 10:57:26;;;;;;;15.75;11.73;;;;;;;;;;5008035;28;20038;-77
2022/12/08 10:59:55;;;;;;;12.88;9.10;;;;;;;;;;5022069;28;20049;-77
2022/12/08 11:02:21;;;;;;;12.05;8.15;;;;;;;;;;5028125;28;20029;-77
2022/12/08 11:04:57;;;;;;;10.95;6.45;;;;;;;;;;5010858;28;20080;-77
2022/12/08 11:07:24;;;;;;;14.40;6.68;;;;;;;;;;5027619;28;20067;-77
2022/12/08 11:09:53;;;;;;;8.70;6.40;;;;;;;;;;5033013;28;20041;-77
2022/12/08 11:12:19;;;;;;;10.52;7.40;;;;;;;;;;5012564;28;20025;-77
2022/12/08 11:14:47;;;;;;;7.00;5.90;;;;;;;;;;5012673;28;20034;-77
2022/12/08 11:17:13;;;;;;;9.05;5.38;;;;;;;;;;5007943;28;20029;-77
2022/12/08 11:19:40;;;;;;;9.63;7.22;;;;;;;;;;5009244;28;20031;-77
2022/12/08 11:22:29;;;;;;;8.45;6.55;;;;;;;;;;5009920;28;20056;-77
2022/12/08 11:24:59;;;;;;;8.48;6.32;;;;;;;;;;5029684;28;20535;-77
2022/12/08 11:27:25;;;;;;;9.73;6.18;;;;;;;;;;5029625;28;20035;-77
2022/12/08 11:29:52;;;;;;;9.70;5.10;;;;;;;;;;5010036;28;20478;-77
2022/12/08 11:32:18;;;;;;;6.40;5.20;;;;;;;;;;5027887;28;20025;-77
2022/12/08 11:34:51;;;;;;;8.95;5.70;;;;;;;;;;5028204;28;20052;-77
2022/12/08 11:37:25;;;;;;;8.68;5.70;;;;;;;;;;5023882;28;20026;-77
2022/12/08 11:39:53;;;;;;;8.77;5.88;;;;;;;;;;5011001;28;20049;-77
2022/12/08 11:42:21;;;;;;;7.53;5.30;;;;;;;;;;5024486;28;20037;-76
2022/12/08 11:44:57;;;;;;;9.70;6.43;;;;;;;;;;5028471;28;20033;-77
2022/12/08 11:47:25;;;;;;;7.43;5.95;;;;;;;;;;5027523;28;20021;-77
2022/12/08 11:50:01;;;;;;;8.73;6.88;;;;;;;;;;5028170;28;20025;-77
2022/12/08 11:52:30;;;;;;;8.63;6.25;;;;;;;;;;5024930;28;20509;-77
2022/12/08 11:55:25;;;;;;;9.75;7.43;;;;;;;;;;5010313;28;20026;-77
2022/12/08 11:57:53;;;;;;;9.50;6.20;;;;;;;;;;4997597;28;20061;-77
2022/12/08 12:00:19;;;;;;;8.23;5.28;;;;;;;;;;5027869;28;21814;-77
2022/12/08 12:02:49;;;;;;;9.00;6.53;;;;;;;;;;5017505;28;20064;-77
2022/12/08 12:05:29;;;;;;;8.90;6.32;;;;;;;;;;5031675;28;20044;-77
2022/12/08 12:08:04;;;;;;;7.80;6.18;;;;;;;;;;5012056;28;20032;-77
2022/12/08 12:10:33;;;;;;;6.93;4.97;;;;;;;;;;5027855;28;20053;-76
2022/12/08 12:13:18;;;;;;;8.90;5.97;;;;;;;;;;5030352;28;20047;-77
2022/12/08 12:15:53;;;;;;;6.50;4.80;;;;;;;;;;5029274;28;20029;-77
2022/12/08 12:18:40;;;;;;;6.70;4.60;;;;;;;;;;5029290;28;20049;-77
2022/12/08 12:21:09;;;;;;;6.80;5.00;;;;;;;;;;5030620;28;20021;-77
2022/12/08 12:23:44;;;;;;;6.47;4.57;;;;;;;;;;5030963;28;20105;-76
2022/12/08 12:26:17;;;;;;;7.03;5.37;;;;;;;;;;5029300;28;20029;-76
2022/12/08 12:28:53;;;;;;;8.82;4.43;;;;;;;;;;5030809;28;20310;-76
2022/12/08 12:31:22;;;;;;;5.60;4.32;;;;;;;;;;5034396;28;20029;-78
2022/12/08 12:33:49;;;;;;;5.50;4.13;;;;;;;;;;5017002;28;20029;-78
2022/12/08 12:36:15;;;;;;;5.85;4.82;;;;;;;;;;5011960;28;20029;-78
2022/12/08 12:39:03;;;;;;;5.50;4.47;;;;;;;;;;5030710;28;20113;-78
2022/12/08 12:41:36;;;;;;;5.72;3.67;;;;;;;;;;5027219;28;20482;-81
2022/12/08 12:44:14;;;;;;;5.68;4.10;;;;;;;;;;5035201;28;20025;-80
2022/12/08 12:46:40;;;;;;;5.10;3.97;;;;;;;;;;5034904;28;20075;-79
2022/12/08 12:49:25;;;;;;;5.47;3.67;;;;;;;;;;5034879;28;20021;-80
2022/12/08 12:51:54;;;;;;;5.05;3.65;;;;;;;;;;5019865;28;20038;-76
2022/12/08 12:54:25;;;;;;;4.63;3.58;;;;;;;;;;5038050;28;20049;-79
2022/12/08 12:56:51;;;;;;;6.07;4.50;;;;;;;;;;5015524;28;20037;-79
2022/12/08 12:59:46;;;;;;;5.53;3.20;;;;;;;;;;5029336;28;20061;-76
2022/12/08 13:02:19;;;;;;;3.97;3.20;;;;;;;;;;5023458;28;20049;-78
2022/12/08 13:04:52;;;;;;;4.25;3.10;;;;;;;;;;5017053;28;20619;-77
2022/12/08 13:07:25;;;;;;;7.10;3.50;;;;;;;;;;5038780;28;20017;-77
2022/12/08 13:09:56;;;;;;;3.95;3.38;;;;;;;;;;5018984;28;20691;-78
2022/12/08 13:12:24;;;;;;;4.72;3.33;;;;;;;;;;5036819;28;20041;-77
2022/12/08 13:14:50;;;;;;;6.85;4.93;;;;;;;;;;5028356;28;20034;-78
2022/12/08 13:17:23;;;;;;;5.05;3.60;;;;;;;;;;5019751;28;20678;-79
2022/12/08 13:19:53;;;;;;;6.97;4.22;;;;;;;;;;5030547;28;20022;-78
2022/12/08 13:22:38;;;;;;;7.25;5.05;;;;;;;;;;5034777;28;20029;-79
2022/12/08 13:25:22;;;;;;;4.13;3.20;;;;;;;;;;5032893;28;20034;-78
2022/12/08 13:27:53;;;;;;;4.22;3.83;;;;;;;;;;5032654;28;20028;-77
2022/12/08 13:30:41;;;;;;;4.90;3.80;;;;;;;;;;5031221;28;20653;-78
2022/12/08 13:33:11;;;;;;;4.47;4.07;;;;;;;;;;5038641;28;20458;-79
2022/12/08 13:35:40;;;;;;;7.30;4.70;;;;;;;;;;5040793;28;20030;-77
2022/12/08 13:38:06;;;;;;;7.95;4.93;;;;;;;;;;5014825;28;20075;-78
2022/12/08 13:40:34;;;;;;;5.45;4.60;;;;;;;;;;5036541;28;20095;-78
2022/12/08 13:43:14;;;;;;;7.63;5.35;;;;;;;;;;5015418;28;20547;-77
2022/12/08 13:45:41;;;;;;;5.07;3.65;;;;;;;;;;5034097;28;20028;-77
2022/12/08 13:48:16;;;;;;;4.22;3.83;;;;;;;;;;5012391;28;20025;-78
2022/12/08 13:50:44;;;;;;;5.20;4.10;;;;;;;;;;5033854;28;20052;-79
2022/12/08 13:53:10;;;;;;;5.35;3.90;;;;;;;;;;5032527;28;20026;-78
2022/12/08 13:55:39;;;;;;;5.63;4.47;;;;;;;;;;5030981;28;20416;-84
2022/12/08 13:58:05;;;;;;;4.68;3.75;;;;;;;;;;5033508;28;20075;-77
2022/12/08 14:00:31;;;;;;;6.30;4.75;;;;;;;;;;5017825;28;20462;-79
2022/12/08 14:02:59;;;;;;;4.43;3.60;;;;;;;;;;5013992;28;20047;-78
2022/12/08 14:05:27;;;;;;;6.85;5.53;;;;;;;;;;5036632;28;20033;-81
2022/12/08 14:07:55;;;;;;;9.45;8.48;;;;;;;;;;5032518;28;20041;-78
2022/12/08 14:10:28;;;;;;;6.32;4.70;;;;;;;;;;5035037;28;20029;-81
2022/12/08 14:13:05;;;;;;;5.07;4.05;;;;;;;;;;5014522;28;20025;-78
2022/12/08 14:15:34;;;;;;;4.25;3.63;;;;;;;;;;5033060;28;20064;-78
2022/12/08 14:18:00;;;;;;;4.95;3.50;;;;;;;;;;5031250;28;20030;-80
2022/12/08 14:20:28;;;;;;;6.28;4.15;;;;;;;;;;5034751;28;20124;-80
2022/12/08 14:22:55;;;;;;;4.93;3.65;;;;;;;;;;5030654;28;20029;-77
2022/12/08 14:25:21;;;;;;;4.85;3.97;;;;;;;;;;5028463;28;20034;-78
2022/12/08 14:27:48;;;;;;;5.00;3.72;;;;;;;;;;5031549;28;20022;-82
2022/12/08 14:30:25;;;;;;;4.38;3.85;;;;;;;;;;5032127;28;20038;-77
2022/12/08 14:32:55;;;;;;;5.75;4.05;;;;;;;;;;5029279;28;20037;-77
2022/12/08 14:35:24;;;;;;;8.55;3.50;;;;;;;;;;5026194;28;21520;-77
2022/12/08 14:37:52;;;;;;;7.88;3.95;;;;;;;;;;5012084;28;20025;-76
2022/12/08 14:40:18;;;;;;;7.43;3.65;;;;;;;;;;5010008;28;20127;-76
2022/12/08 14:42:46;;;;;;;6.63;3.10;;;;;;;;;;5028832;28;20028;-77
2022/12/08 14:45:14;;;;;;;8.05;3.80;;;;;;;;;;5025502;28;20091;-77